Time;durP1;ratioP1;P1;durP2;ratioP2;P2;SDS_P1;SDS_P2;PMS_P1;PMS_P2;Temp;Humidity;BMP_temperature;BMP_pressure;BME280_temperature;BME280_humidity;BME280_pressure;Samples;Min_cycle;Max_cycle;Signal;HPM_P1;HPM_P2
2021/12/09 00:01:28;;;;;;;47.67;27.93;;;2.50;99.90;;;;;;5052021;28;20495;-62
2021/12/09 00:03:59;;;;;;;51.47;28.93;;;2.50;99.90;;;;;;5054202;28;20470;-62
2021/12/09 00:06:29;;;;;;;46.93;28.60;;;2.40;99.90;;;;;;5052836;28;20563;-63
2021/12/09 00:09:00;;;;;;;51.53;28.50;;;2.40;99.90;;;;;;5057906;28;20482;-63
2021/12/09 00:11:29;;;;;;;50.93;29.03;;;2.40;99.90;;;;;;5057538;28;20491;-63
2021/12/09 00:13:58;;;;;;;51.80;29.60;;;2.40;99.90;;;;;;5054801;28;20488;-63
2021/12/09 00:16:26;;;;;;;55.83;30.47;;;2.40;99.90;;;;;;5060614;28;20498;-63
2021/12/09 00:18:55;;;;;;;47.50;27.73;;;2.40;99.90;;;;;;5053464;28;20474;-63
2021/12/09 00:21:23;;;;;;;53.63;29.80;;;2.50;99.90;;;;;;5052829;28;20536;-63
2021/12/09 00:23:51;;;;;;;53.73;29.27;;;2.50;99.90;;;;;;5053541;28;20812;-63
2021/12/09 00:26:21;;;;;;;54.13;28.77;;;2.50;99.90;;;;;;5051463;28;20525;-62
2021/12/09 00:28:49;;;;;;;51.93;28.93;;;2.50;99.90;;;;;;5058085;28;20470;-62
2021/12/09 00:31:18;;;;;;;53.10;29.77;;;2.50;99.90;;;;;;5054594;28;20478;-62
2021/12/09 00:33:47;;;;;;;55.67;30.27;;;2.50;99.90;;;;;;5061534;28;20493;-63
2021/12/09 00:36:26;;;;;;;55.33;30.50;;;2.50;99.90;;;;;;5042617;28;21141;-63
2021/12/09 00:38:55;;;;;;;53.67;30.73;;;2.50;99.90;;;;;;5048903;28;20989;-62
2021/12/09 00:41:25;;;;;;;52.80;30.40;;;2.50;99.90;;;;;;5043057;28;20476;-63
2021/12/09 00:43:54;;;;;;;55.43;30.50;;;2.50;99.90;;;;;;5050370;28;20859;-63
2021/12/09 00:46:22;;;;;;;55.60;30.33;;;2.40;99.90;;;;;;5048375;28;20528;-63
2021/12/09 00:48:50;;;;;;;56.90;31.10;;;2.50;99.90;;;;;;5055207;28;20475;-62
2021/12/09 00:51:19;;;;;;;57.20;31.30;;;2.40;99.90;;;;;;5050908;28;20917;-63
2021/12/09 00:53:47;;;;;;;53.63;30.33;;;2.40;99.90;;;;;;5056496;28;20476;-62
2021/12/09 00:56:16;;;;;;;56.77;30.37;;;2.50;99.90;;;;;;5052237;28;20477;-63
2021/12/09 00:58:45;;;;;;;55.13;29.77;;;2.50;99.90;;;;;;5054952;28;20471;-63
2021/12/09 01:01:14;;;;;;;58.83;30.90;;;2.50;99.90;;;;;;5052217;28;20483;-63
2021/12/09 01:03:43;;;;;;;56.77;29.73;;;2.50;99.90;;;;;;5054587;28;20460;-63
2021/12/09 01:06:11;;;;;;;57.27;30.60;;;2.50;99.90;;;;;;5046590;28;20920;-62
2021/12/09 01:08:42;;;;;;;63.00;31.27;;;2.50;99.90;;;;;;5046704;28;20472;-63
2021/12/09 01:11:12;;;;;;;62.27;32.50;;;2.40;99.90;;;;;;5054509;28;20484;-63
2021/12/09 01:13:42;;;;;;;57.70;31.60;;;2.50;99.90;;;;;;5047812;28;21060;-63
2021/12/09 01:16:12;;;;;;;56.67;31.37;;;2.50;99.90;;;;;;5053296;28;20468;-63
2021/12/09 01:18:42;;;;;;;60.77;32.03;;;2.50;99.90;;;;;;5049010;28;20522;-63
2021/12/09 01:21:10;;;;;;;53.53;29.00;;;2.50;99.90;;;;;;5054392;28;20470;-62
2021/12/09 01:23:39;;;;;;;56.37;29.80;;;2.50;99.90;;;;;;5053738;28;20508;-63
2021/12/09 01:26:09;;;;;;;53.53;29.03;;;2.50;99.90;;;;;;5051300;28;20465;-63
2021/12/09 01:28:45;;;;;;;57.80;31.87;;;2.50;99.90;;;;;;5048018;28;20499;-63
2021/12/09 01:31:22;;;;;;;54.03;30.40;;;2.50;99.90;;;;;;5056373;28;20564;-62
2021/12/09 01:33:52;;;;;;;53.27;28.30;;;2.60;99.90;;;;;;5057282;28;20530;-63
2021/12/09 01:36:20;;;;;;;54.63;29.87;;;2.60;99.90;;;;;;5057125;28;20559;-63
2021/12/09 01:38:49;;;;;;;57.90;30.23;;;2.70;99.90;;;;;;5049140;28;20513;-63
2021/12/09 01:41:17;;;;;;;55.73;31.13;;;2.70;99.90;;;;;;5052058;28;20563;-63
2021/12/09 01:43:45;;;;;;;57.60;30.37;;;2.60;99.90;;;;;;5055502;28;20505;-63
2021/12/09 01:46:16;;;;;;;51.90;29.30;;;2.60;99.90;;;;;;5058495;28;20475;-63
2021/12/09 01:48:47;;;;;;;49.03;28.60;;;2.60;99.90;;;;;;5053735;28;20880;-63
2021/12/09 01:51:16;;;;;;;56.77;30.67;;;2.60;99.90;;;;;;5048890;28;20495;-63
2021/12/09 01:53:46;;;;;;;54.47;30.90;;;2.60;99.90;;;;;;5056395;28;20901;-63
2021/12/09 01:56:20;;;;;;;45.87;25.40;;;2.60;99.90;;;;;;5063649;28;20544;-63
2021/12/09 01:58:49;;;;;;;57.37;27.03;;;3.00;99.90;;;;;;5054954;28;20475;-63
2021/12/09 02:01:19;;;;;;;70.60;34.23;;;3.30;99.90;;;;;;5056621;28;20465;-62
2021/12/09 02:03:49;;;;;;;59.33;28.23;;;3.10;99.90;;;;;;5048877;28;20582;-63
2021/12/09 02:06:18;;;;;;;68.70;33.00;;;3.10;99.90;;;;;;5052352;28;20518;-63
2021/12/09 02:08:47;;;;;;;63.00;32.37;;;3.00;99.90;;;;;;5050181;28;21451;-61
2021/12/09 02:11:15;;;;;;;61.27;31.83;;;2.80;99.90;;;;;;5049290;28;20537;-63
2021/12/09 02:13:44;;;;;;;63.00;32.27;;;2.70;99.90;;;;;;5052993;28;20489;-61
2021/12/09 02:16:13;;;;;;;57.13;32.10;;;2.60;99.90;;;;;;5054702;28;20559;-63
2021/12/09 02:18:44;;;;;;;58.40;30.47;;;2.80;99.90;;;;;;5051350;28;20519;-63
2021/12/09 02:21:16;;;;;;;58.37;31.00;;;2.70;99.90;;;;;;5059696;28;20555;-62
2021/12/09 02:23:46;;;;;;;56.87;31.23;;;2.70;99.90;;;;;;5042091;28;20508;-63
2021/12/09 02:26:17;;;;;;;56.43;31.50;;;2.70;99.90;;;;;;5055074;28;20478;-63
2021/12/09 02:28:49;;;;;;;61.57;31.23;;;2.70;99.90;;;;;;5046756;28;20540;-63
2021/12/09 02:31:17;;;;;;;63.37;31.13;;;2.60;99.90;;;;;;5048667;28;20997;-63
2021/12/09 02:33:45;;;;;;;57.93;30.90;;;2.80;99.90;;;;;;5052211;28;20476;-63
2021/12/09 02:36:15;;;;;;;58.63;31.37;;;2.70;99.90;;;;;;5051458;28;20983;-63
2021/12/09 02:38:45;;;;;;;65.77;31.63;;;2.70;99.90;;;;;;5055307;28;20477;-63
2021/12/09 02:41:17;;;;;;;60.43;32.17;;;2.60;99.90;;;;;;5056546;28;20532;-62
2021/12/09 02:43:47;;;;;;;64.30;32.57;;;2.60;99.90;;;;;;5051408;28;20977;-63
2021/12/09 02:46:17;;;;;;;55.97;30.77;;;2.80;99.90;;;;;;5051324;28;20776;-63
2021/12/09 02:48:46;;;;;;;55.20;31.90;;;2.70;99.90;;;;;;5049266;28;20472;-62
2021/12/09 02:51:15;;;;;;;56.47;30.43;;;2.70;99.90;;;;;;5051580;28;20481;-63
2021/12/09 02:53:43;;;;;;;58.23;31.30;;;2.70;99.90;;;;;;5053353;28;20813;-61
2021/12/09 02:56:12;;;;;;;58.97;31.37;;;2.70;99.90;;;;;;5055627;28;20471;-63
2021/12/09 02:58:41;;;;;;;63.03;33.27;;;2.70;99.90;;;;;;5055002;28;21061;-61
2021/12/09 03:01:15;;;;;;;60.60;32.37;;;2.70;99.90;;;;;;5046941;28;20480;-63
2021/12/09 03:03:50;;;;;;;59.63;30.73;;;2.70;99.90;;;;;;5043250;28;20481;-63
2021/12/09 03:06:21;;;;;;;64.30;31.80;;;2.70;99.90;;;;;;5060139;28;20524;-62
2021/12/09 03:08:50;;;;;;;70.93;34.03;;;2.60;99.90;;;;;;5058333;28;20483;-63
2021/12/09 03:11:20;;;;;;;66.37;32.20;;;2.60;99.90;;;;;;5053405;28;20475;-62
2021/12/09 03:13:50;;;;;;;69.03;33.47;;;2.60;99.90;;;;;;5055141;28;20883;-63
2021/12/09 03:16:22;;;;;;;70.43;34.37;;;2.60;99.90;;;;;;5061782;28;20462;-63
2021/12/09 03:18:54;;;;;;;72.37;32.73;;;2.60;99.90;;;;;;5055340;28;20471;-63
2021/12/09 03:21:26;;;;;;;71.77;34.33;;;2.50;99.90;;;;;;5057272;28;20565;-63
2021/12/09 03:23:55;;;;;;;69.20;33.10;;;2.50;99.90;;;;;;5049448;28;20559;-63
2021/12/09 03:26:29;;;;;;;69.20;32.90;;;2.60;99.90;;;;;;5054100;28;20469;-63
2021/12/09 03:29:01;;;;;;;66.47;32.03;;;2.60;99.90;;;;;;5052296;28;20480;-62
2021/12/09 03:31:29;;;;;;;67.30;33.23;;;2.60;99.90;;;;;;5052240;28;20559;-63
2021/12/09 03:33:59;;;;;;;72.40;32.33;;;2.60;99.90;;;;;;5057675;28;20868;-63
2021/12/09 03:36:28;;;;;;;67.67;34.73;;;2.50;99.90;;;;;;5058379;28;20478;-62
2021/12/09 03:38:58;;;;;;;73.87;33.10;;;2.50;99.90;;;;;;5056123;28;20510;-62
2021/12/09 03:41:26;;;;;;;73.10;33.67;;;2.50;99.90;;;;;;5060281;28;20476;-63
2021/12/09 03:43:55;;;;;;;71.97;32.87;;;2.50;99.90;;;;;;5053942;28;20492;-63
2021/12/09 03:46:24;;;;;;;76.30;35.33;;;2.50;99.90;;;;;;5049189;28;20551;-63
2021/12/09 03:48:52;;;;;;;60.03;31.10;;;2.50;99.90;;;;;;5055400;28;20807;-63
2021/12/09 03:51:20;;;;;;;77.47;34.67;;;2.50;99.90;;;;;;5048146;28;20482;-62
2021/12/09 03:53:51;;;;;;;72.07;34.27;;;2.50;99.90;;;;;;5057719;28;20515;-63
2021/12/09 03:56:19;;;;;;;72.17;34.10;;;2.60;99.90;;;;;;5051119;28;20485;-62
2021/12/09 03:58:48;;;;;;;66.83;33.87;;;2.50;99.90;;;;;;5057768;28;20497;-63
2021/12/09 04:01:16;;;;;;;65.57;31.50;;;2.60;99.90;;;;;;5062928;28;20470;-63
2021/12/09 04:03:44;;;;;;;70.07;32.37;;;2.50;99.90;;;;;;5053180;28;20480;-63
2021/12/09 04:06:12;;;;;;;68.57;31.37;;;2.50;99.90;;;;;;5051585;28;20896;-62
2021/12/09 04:08:40;;;;;;;67.00;31.50;;;2.50;99.90;;;;;;5051253;28;20480;-62
2021/12/09 04:11:11;;;;;;;66.27;31.50;;;2.50;99.90;;;;;;5054915;28;20586;-62
2021/12/09 04:13:39;;;;;;;58.13;29.77;;;2.50;99.90;;;;;;5051125;28;20474;-62
2021/12/09 04:16:08;;;;;;;68.03;32.17;;;2.50;99.90;;;;;;5054374;28;20479;-63
2021/12/09 04:18:37;;;;;;;68.70;31.87;;;2.50;99.90;;;;;;5052636;28;20830;-63
2021/12/09 04:21:07;;;;;;;66.83;32.50;;;2.50;99.90;;;;;;5058789;28;20843;-63
2021/12/09 04:23:35;;;;;;;65.53;31.67;;;2.50;99.90;;;;;;5054747;28;20477;-62
2021/12/09 04:26:04;;;;;;;64.97;31.40;;;2.50;99.90;;;;;;5057870;28;20526;-62
2021/12/09 04:28:34;;;;;;;63.60;30.17;;;2.50;99.90;;;;;;5050858;28;21511;-62
2021/12/09 04:31:03;;;;;;;69.10;35.33;;;2.50;99.90;;;;;;5048611;28;20515;-63
2021/12/09 04:33:32;;;;;;;65.90;31.73;;;2.50;99.90;;;;;;5051790;28;20695;-63
2021/12/09 04:36:00;;;;;;;69.00;33.10;;;2.50;99.90;;;;;;5048671;28;20474;-63
2021/12/09 04:38:29;;;;;;;67.53;32.37;;;2.40;99.90;;;;;;5048129;28;20480;-63
2021/12/09 04:40:57;;;;;;;70.83;32.40;;;2.50;99.90;;;;;;5051329;28;20475;-63
2021/12/09 04:43:25;;;;;;;63.37;30.57;;;2.40;99.90;;;;;;5048995;28;20533;-63
2021/12/09 04:45:57;;;;;;;58.17;28.30;;;2.40;99.90;;;;;;5049070;28;20475;-63
2021/12/09 04:48:25;;;;;;;70.77;33.17;;;2.50;99.90;;;;;;5049172;28;20490;-63
2021/12/09 04:50:53;;;;;;;69.27;33.73;;;2.50;99.90;;;;;;5049631;28;20482;-63
2021/12/09 04:53:21;;;;;;;67.70;32.17;;;2.50;99.90;;;;;;5047571;28;20515;-63
2021/12/09 04:55:49;;;;;;;63.30;30.53;;;2.60;99.90;;;;;;5049202;28;20511;-63
2021/12/09 04:58:18;;;;;;;59.27;31.30;;;2.50;99.90;;;;;;5048978;28;20483;-62
2021/12/09 05:00:48;;;;;;;66.07;30.93;;;2.50;99.90;;;;;;5047461;28;21002;-63
2021/12/09 05:03:18;;;;;;;59.93;29.47;;;2.50;99.90;;;;;;5049587;28;20468;-63
2021/12/09 05:05:49;;;;;;;64.00;30.73;;;2.50;99.90;;;;;;5046360;28;20898;-62
2021/12/09 05:08:23;;;;;;;61.03;30.97;;;2.50;99.90;;;;;;5047044;28;20513;-63
2021/12/09 05:11:01;;;;;;;68.47;31.87;;;2.50;99.90;;;;;;5055550;28;20559;-63
2021/12/09 05:13:33;;;;;;;60.53;30.23;;;2.60;99.90;;;;;;5054010;28;20490;-63
2021/12/09 05:16:02;;;;;;;64.10;29.40;;;2.60;99.90;;;;;;5048988;28;20539;-63
2021/12/09 05:18:35;;;;;;;61.87;30.47;;;2.50;99.90;;;;;;5052488;28;21000;-63
2021/12/09 05:21:06;;;;;;;58.03;29.80;;;2.50;99.90;;;;;;5049936;28;20891;-62
2021/12/09 05:23:35;;;;;;;64.83;31.63;;;2.60;99.90;;;;;;5051037;28;20479;-63
2021/12/09 05:26:04;;;;;;;66.63;30.83;;;2.50;99.90;;;;;;5051696;28;20473;-62
2021/12/09 05:28:36;;;;;;;61.97;29.67;;;2.50;99.90;;;;;;5055451;28;20473;-63
2021/12/09 05:33:53;;;;;;;66.47;31.43;;;2.60;99.90;;;;;;5043786;28;20491;-62
2021/12/09 05:36:21;;;;;;;61.00;30.83;;;2.60;99.90;;;;;;5051564;28;20467;-62
2021/12/09 05:38:49;;;;;;;62.13;30.17;;;2.50;99.90;;;;;;5046526;28;20479;-63
2021/12/09 05:41:17;;;;;;;60.57;30.13;;;2.50;99.90;;;;;;5054954;28;20834;-62
2021/12/09 05:43:45;;;;;;;65.50;31.73;;;2.50;99.90;;;;;;5054269;28;20822;-63
2021/12/09 05:46:14;;;;;;;61.13;30.23;;;2.50;99.90;;;;;;5043006;28;20483;-63
2021/12/09 05:48:42;;;;;;;63.47;30.83;;;2.60;99.90;;;;;;5040691;28;20486;-63
2021/12/09 05:51:11;;;;;;;65.80;30.13;;;2.50;99.90;;;;;;5040942;28;20481;-62
2021/12/09 05:53:39;;;;;;;67.13;31.87;;;2.50;99.90;;;;;;5041476;28;20515;-63
2021/12/09 05:56:07;;;;;;;61.37;30.47;;;2.60;99.90;;;;;;5039905;28;20470;-63
2021/12/09 05:58:36;;;;;;;64.70;31.10;;;2.50;99.90;;;;;;5039960;28;20486;-63
2021/12/09 06:01:04;;;;;;;64.77;30.20;;;2.50;99.90;;;;;;5040386;28;21052;-62
2021/12/09 06:03:33;;;;;;;60.50;30.17;;;2.50;99.90;;;;;;5040493;28;20925;-63
2021/12/09 06:06:07;;;;;;;67.37;30.80;;;2.60;99.90;;;;;;5040143;28;21059;-63
2021/12/09 06:08:38;;;;;;;69.40;31.20;;;2.80;99.90;;;;;;5040273;28;20483;-63
2021/12/09 06:11:09;;;;;;;65.37;30.37;;;2.70;99.90;;;;;;5041792;28;20475;-63
2021/12/09 06:13:38;;;;;;;66.27;31.27;;;2.60;99.90;;;;;;5046676;28;20557;-63
2021/12/09 06:16:08;;;;;;;61.67;30.67;;;2.50;99.90;;;;;;5052332;28;20572;-62
2021/12/09 06:18:36;;;;;;;62.23;30.10;;;2.50;99.90;;;;;;5043768;28;20913;-63
2021/12/09 06:21:06;;;;;;;62.40;30.63;;;2.50;99.90;;;;;;5049850;28;20861;-63
2021/12/09 06:23:34;;;;;;;58.97;30.23;;;2.50;99.90;;;;;;5050663;28;20471;-63
2021/12/09 06:26:05;;;;;;;58.30;29.43;;;2.50;99.90;;;;;;5054581;28;21074;-62
2021/12/09 06:28:34;;;;;;;63.57;29.10;;;2.50;99.90;;;;;;5054645;28;20475;-63
2021/12/09 06:31:03;;;;;;;67.60;32.00;;;2.50;99.90;;;;;;5060829;28;20498;-63
2021/12/09 06:33:31;;;;;;;69.10;32.07;;;2.40;99.90;;;;;;5057337;28;20509;-63
2021/12/09 06:36:00;;;;;;;62.13;30.67;;;2.40;99.90;;;;;;5058988;28;20982;-61
2021/12/09 06:38:28;;;;;;;62.10;30.37;;;2.40;99.90;;;;;;5053418;28;20478;-61
2021/12/09 06:40:56;;;;;;;61.27;31.17;;;2.40;99.90;;;;;;5059972;28;20567;-63
2021/12/09 06:43:27;;;;;;;62.83;29.93;;;2.40;99.90;;;;;;5040890;28;20470;-63
2021/12/09 06:45:58;;;;;;;62.97;30.67;;;2.40;99.90;;;;;;5052485;28;20581;-63
2021/12/09 06:48:27;;;;;;;61.63;31.00;;;2.40;99.90;;;;;;5060869;28;20501;-63
2021/12/09 06:50:55;;;;;;;61.00;30.83;;;2.40;99.90;;;;;;5057398;28;20479;-63
2021/12/09 06:53:23;;;;;;;60.47;30.80;;;2.40;99.90;;;;;;5054121;28;21022;-63
2021/12/09 06:55:51;;;;;;;64.10;32.00;;;2.40;99.90;;;;;;5051607;28;20486;-62
2021/12/09 06:58:21;;;;;;;63.60;30.40;;;2.40;99.90;;;;;;5048816;28;20525;-63
2021/12/09 07:00:51;;;;;;;64.57;31.63;;;2.40;99.90;;;;;;5053493;28;20994;-63
2021/12/09 07:03:21;;;;;;;63.27;31.00;;;2.40;99.90;;;;;;5052474;28;20490;-63
2021/12/09 07:05:50;;;;;;;65.37;31.53;;;2.40;99.90;;;;;;5058949;28;20483;-63
2021/12/09 07:08:19;;;;;;;60.83;30.90;;;2.40;99.90;;;;;;5051725;28;20991;-63
2021/12/09 07:10:48;;;;;;;68.93;31.73;;;2.40;99.90;;;;;;5064312;28;20869;-63
2021/12/09 07:13:16;;;;;;;64.93;31.07;;;2.40;99.90;;;;;;5054659;28;20983;-63
2021/12/09 07:15:45;;;;;;;63.83;30.80;;;2.40;99.90;;;;;;5062931;28;21167;-63
2021/12/09 07:18:14;;;;;;;69.20;32.50;;;2.30;99.90;;;;;;5051508;28;20462;-63
2021/12/09 07:20:42;;;;;;;66.57;32.57;;;2.40;99.90;;;;;;5051657;28;20486;-62
2021/12/09 07:23:10;;;;;;;64.90;31.70;;;2.40;99.90;;;;;;5056897;28;20472;-63
2021/12/09 07:25:39;;;;;;;71.80;32.67;;;2.30;99.90;;;;;;5044540;28;20470;-63
2021/12/09 07:28:07;;;;;;;66.97;32.67;;;2.40;99.90;;;;;;5056496;28;20534;-63
2021/12/09 07:30:35;;;;;;;69.90;32.33;;;2.40;99.90;;;;;;5056715;28;20836;-63
2021/12/09 07:33:03;;;;;;;67.73;31.23;;;2.40;99.90;;;;;;5054797;28;20553;-63
2021/12/09 07:35:33;;;;;;;73.60;33.90;;;2.40;99.90;;;;;;5058484;28;20467;-62
2021/12/09 07:38:02;;;;;;;69.97;32.53;;;2.30;99.90;;;;;;5060638;28;20508;-63
2021/12/09 07:40:31;;;;;;;69.07;31.37;;;2.40;99.90;;;;;;5051101;28;20480;-62
2021/12/09 07:43:00;;;;;;;76.37;33.80;;;2.40;99.90;;;;;;5041659;28;20537;-63
2021/12/09 07:45:28;;;;;;;68.47;33.10;;;2.30;99.90;;;;;;5056410;28;20465;-63
2021/12/09 07:47:57;;;;;;;72.37;32.73;;;2.40;99.90;;;;;;5050965;28;20482;-63
2021/12/09 07:50:28;;;;;;;75.00;34.63;;;2.40;99.90;;;;;;5057837;28;20483;-62
2021/12/09 07:52:57;;;;;;;72.23;30.80;;;2.40;99.90;;;;;;5049129;28;20553;-62
2021/12/09 07:55:27;;;;;;;70.00;32.40;;;2.50;99.90;;;;;;5053184;28;20485;-62
2021/12/09 07:57:55;;;;;;;69.90;32.93;;;2.50;99.90;;;;;;5033525;28;20480;-62
2021/12/09 08:00:26;;;;;;;69.53;31.90;;;2.50;99.90;;;;;;5037256;28;20911;-63
2021/12/09 08:02:57;;;;;;;70.63;33.10;;;2.50;99.90;;;;;;5040387;28;20559;-63
2021/12/09 08:05:26;;;;;;;63.17;32.00;;;2.50;99.90;;;;;;5038590;28;20529;-63
2021/12/09 08:07:54;;;;;;;65.70;32.93;;;2.50;99.90;;;;;;5039273;28;20484;-62
2021/12/09 08:10:24;;;;;;;62.17;31.10;;;2.60;99.90;;;;;;5040269;28;21029;-63
2021/12/09 08:12:52;;;;;;;61.73;32.03;;;2.60;99.90;;;;;;5040217;28;21781;-63
2021/12/09 08:15:27;;;;;;;65.10;32.07;;;2.50;99.90;;;;;;5036909;28;21010;-62
2021/12/09 08:18:02;;;;;;;66.70;31.50;;;2.50;99.90;;;;;;5041291;28;21068;-61
2021/12/09 08:20:33;;;;;;;62.63;32.27;;;2.60;99.90;;;;;;5039546;28;20485;-63
2021/12/09 08:41:31;;;;;;;66.53;31.63;;;2.40;99.90;;;;;;5051944;28;20531;-63
2021/12/09 08:44:01;;;;;;;76.40;33.83;;;2.40;99.90;;;;;;5052427;28;20914;-62
2021/12/09 08:46:29;;;;;;;76.13;34.27;;;2.40;99.90;;;;;;5047607;28;20446;-62
2021/12/09 08:48:57;;;;;;;69.47;32.30;;;2.40;99.90;;;;;;5053919;28;20490;-62
2021/12/09 08:51:25;;;;;;;75.23;34.33;;;2.40;99.90;;;;;;5053122;28;20490;-62
2021/12/09 08:53:53;;;;;;;76.50;33.90;;;2.40;99.90;;;;;;5052709;28;20568;-60
2021/12/09 08:56:21;;;;;;;73.10;33.07;;;2.40;99.90;;;;;;5049159;28;20491;-63
2021/12/09 08:58:50;;;;;;;80.07;34.97;;;2.50;99.90;;;;;;5052700;28;21037;-62
2021/12/09 09:01:19;;;;;;;71.80;34.43;;;2.40;99.90;;;;;;5052276;28;20449;-63
2021/12/09 09:03:48;;;;;;;74.67;34.90;;;2.40;99.90;;;;;;5054080;28;20446;-63
2021/12/09 09:06:16;;;;;;;78.40;35.10;;;2.40;99.90;;;;;;5049673;28;20462;-63
2021/12/09 09:08:44;;;;;;;76.37;34.67;;;2.50;99.90;;;;;;5054344;28;21028;-63
2021/12/09 09:11:13;;;;;;;84.30;35.80;;;2.50;99.90;;;;;;5052841;28;20569;-63
2021/12/09 09:13:41;;;;;;;74.17;35.33;;;2.50;99.90;;;;;;5053895;28;20917;-63
2021/12/09 09:16:10;;;;;;;82.17;35.53;;;2.40;99.90;;;;;;5051252;28;20495;-63
2021/12/09 09:18:39;;;;;;;75.03;34.30;;;2.40;99.90;;;;;;5053247;28;20474;-63
2021/12/09 09:21:08;;;;;;;77.70;35.03;;;2.30;99.90;;;;;;5052328;28;20451;-63
2021/12/09 09:23:37;;;;;;;75.03;33.10;;;2.30;99.90;;;;;;5051741;28;20769;-62
2021/12/09 09:26:05;;;;;;;74.97;34.07;;;2.30;99.90;;;;;;5048714;28;20447;-63
2021/12/09 09:28:33;;;;;;;74.97;33.47;;;2.40;99.90;;;;;;5052224;28;20803;-62
2021/12/09 09:31:03;;;;;;;71.07;32.60;;;2.30;99.90;;;;;;5050590;28;20592;-62
2021/12/09 09:33:34;;;;;;;74.77;33.17;;;2.30;99.90;;;;;;5050953;28;20589;-62
2021/12/09 09:36:05;;;;;;;64.93;32.07;;;2.30;99.90;;;;;;5051192;28;20564;-62
2021/12/09 09:38:34;;;;;;;66.60;31.93;;;2.30;99.90;;;;;;5051913;28;20487;-63
2021/12/09 09:41:07;;;;;;;69.80;31.37;;;2.20;99.90;;;;;;5053253;28;20794;-62
2021/12/09 09:43:56;;;;;;;69.17;32.93;;;2.30;99.90;;;;;;5053568;28;20581;-61
2021/12/09 09:46:27;;;;;;;63.53;28.20;;;2.40;99.90;;;;;;5047532;28;20476;-62
2021/12/09 09:48:56;;;;;;;66.33;31.30;;;2.50;99.90;;;;;;5046489;28;21973;-62
2021/12/09 09:51:29;;;;;;;74.77;32.27;;;2.50;99.90;;;;;;5045738;28;20474;-62
2021/12/09 09:53:58;;;;;;;69.60;32.00;;;2.50;99.90;;;;;;5046501;28;20525;-63
2021/12/09 09:56:28;;;;;;;70.43;33.13;;;2.50;99.90;;;;;;5041446;28;20478;-63
2021/12/09 09:59:00;;;;;;;71.33;33.93;;;2.50;99.90;;;;;;5046282;28;20582;-63
2021/12/09 10:01:30;;;;;;;70.03;33.50;;;2.50;99.90;;;;;;5045214;28;20468;-62
2021/12/09 10:04:11;;;;;;;69.60;32.90;;;2.50;99.90;;;;;;5045447;28;20576;-63
2021/12/09 10:06:44;;;;;;;71.87;32.93;;;2.50;99.90;;;;;;5043313;28;20881;-63
2021/12/09 10:09:13;;;;;;;70.97;32.90;;;2.60;99.90;;;;;;5045913;28;21396;-62
2021/12/09 10:11:42;;;;;;;65.37;32.33;;;2.60;99.90;;;;;;5044265;28;20474;-62
2021/12/09 10:14:13;;;;;;;64.53;30.97;;;2.60;99.90;;;;;;5043578;28;20509;-63
2021/12/09 10:16:42;;;;;;;68.40;32.40;;;2.60;99.90;;;;;;5043152;28;21022;-62
2021/12/09 10:19:19;;;;;;;66.00;32.90;;;2.60;99.90;;;;;;5045858;28;20478;-63
2021/12/09 10:22:03;;;;;;;68.47;33.83;;;2.60;99.90;;;;;;5047868;28;20500;-63
2021/12/09 10:24:32;;;;;;;71.23;33.53;;;2.60;99.90;;;;;;5043724;28;20587;-62
2021/12/09 10:27:01;;;;;;;69.37;33.80;;;2.60;99.90;;;;;;5046428;28;20871;-62
2021/12/09 10:29:33;;;;;;;66.60;31.83;;;2.70;99.90;;;;;;5046694;28;20651;-62
2021/12/09 10:32:04;;;;;;;70.43;33.43;;;2.70;99.90;;;;;;5045148;28;20581;-63
2021/12/09 10:34:35;;;;;;;76.90;34.70;;;2.60;99.90;;;;;;5043025;28;20578;-63
2021/12/09 10:37:10;;;;;;;82.07;36.10;;;2.60;99.90;;;;;;5044953;28;20559;-63
2021/12/09 10:39:42;;;;;;;71.63;34.47;;;2.60;99.90;;;;;;5046296;28;21032;-63
2021/12/09 10:42:15;;;;;;;74.67;33.50;;;2.60;99.90;;;;;;5046483;28;20942;-63
2021/12/09 10:44:51;;;;;;;72.63;34.43;;;2.60;99.90;;;;;;5043519;28;20605;-62
2021/12/09 10:47:36;;;;;;;69.90;34.23;;;2.60;99.90;;;;;;5045332;28;20558;-62
2021/12/09 10:50:11;;;;;;;75.23;35.27;;;2.80;99.90;;;;;;5046273;28;20633;-62
2021/12/09 10:52:45;;;;;;;76.20;34.57;;;2.80;99.90;;;;;;5045971;28;20576;-63
2021/12/09 10:55:18;;;;;;;67.67;33.23;;;2.80;99.90;;;;;;5043272;28;20496;-63
2021/12/09 10:57:53;;;;;;;73.80;35.80;;;2.80;99.90;;;;;;5045833;28;20630;-63
2021/12/09 11:00:28;;;;;;;70.00;35.03;;;2.90;99.90;;;;;;5047250;28;20552;-62
2021/12/09 11:03:00;;;;;;;66.40;33.77;;;2.90;99.90;;;;;;5044817;28;20479;-62
2021/12/09 11:05:28;;;;;;;77.17;37.57;;;3.00;99.90;;;;;;5042616;28;20570;-63
2021/12/09 11:08:20;;;;;;;70.20;34.37;;;2.90;99.90;;;;;;5047338;28;20478;-62
2021/12/09 11:10:50;;;;;;;76.33;36.63;;;3.00;99.90;;;;;;5046649;28;21001;-63
2021/12/09 11:13:21;;;;;;;69.60;36.00;;;3.00;99.90;;;;;;5045848;28;20498;-62
2021/12/09 11:15:58;;;;;;;71.33;36.33;;;3.00;99.90;;;;;;5044831;28;20740;-63
2021/12/09 11:18:36;;;;;;;77.07;35.93;;;3.00;99.90;;;;;;5049012;28;20507;-63
2021/12/09 11:21:09;;;;;;;76.23;35.63;;;3.00;99.90;;;;;;5048887;28;21012;-62
2021/12/09 11:23:42;;;;;;;74.80;34.83;;;3.00;99.90;;;;;;5049924;28;21203;-62
2021/12/09 11:26:41;;;;;;;73.97;35.17;;;2.90;99.90;;;;;;5046859;28;20486;-62
2021/12/09 11:29:12;;;;;;;71.57;36.07;;;3.00;99.90;;;;;;5050117;28;20794;-62
2021/12/09 11:31:50;;;;;;;71.10;34.73;;;3.00;99.90;;;;;;5049555;28;20564;-63
2021/12/09 11:34:23;;;;;;;71.70;35.07;;;3.10;99.90;;;;;;5048541;28;21039;-62
2021/12/09 11:36:56;;;;;;;68.13;34.47;;;3.10;99.90;;;;;;5048507;28;20483;-62
2021/12/09 11:39:33;;;;;;;66.23;32.73;;;3.10;99.90;;;;;;5050607;28;20473;-62
2021/12/09 11:42:20;;;;;;;69.17;36.00;;;3.20;99.90;;;;;;5049234;28;21353;-63
2021/12/09 11:45:07;;;;;;;69.77;35.43;;;3.20;99.90;;;;;;5046966;28;21053;-63
2021/12/09 11:47:35;;;;;;;69.73;34.60;;;3.20;99.90;;;;;;5050179;28;20602;-62
2021/12/09 11:50:11;;;;;;;69.10;36.37;;;3.20;99.90;;;;;;5050907;28;21007;-61
2021/12/09 11:52:40;;;;;;;67.13;35.27;;;3.20;99.90;;;;;;5049334;28;21287;-62
2021/12/09 11:55:13;;;;;;;62.40;31.97;;;3.10;99.90;;;;;;5046233;28;20465;-62
2021/12/09 11:57:44;;;;;;;69.17;34.93;;;3.20;99.90;;;;;;5048996;28;20477;-62
2021/12/09 12:07:03;;;;;;;75.33;35.90;;;3.10;99.90;;;;;;5046872;28;20479;-62
2021/12/09 12:12:42;;;;;;;68.00;33.67;;;3.30;99.90;;;;;;5050287;28;20476;-63
2021/12/09 12:15:51;;;;;;;67.73;35.30;;;3.20;99.90;;;;;;5047056;28;20540;-63
2021/12/09 12:21:43;;;;;;;68.37;34.07;;;3.30;99.90;;;;;;5046706;28;20489;-62
2021/12/09 12:24:40;;;;;;;72.00;35.83;;;3.30;99.90;;;;;;5049197;28;20522;-63
2021/12/09 12:30:39;;;;;;;68.10;34.67;;;3.30;99.90;;;;;;5046841;28;20587;-62
2021/12/09 12:33:21;;;;;;;69.03;33.60;;;3.30;99.90;;;;;;5049936;28;20487;-63
2021/12/09 12:36:00;;;;;;;67.43;33.50;;;3.40;99.90;;;;;;5046123;28;20477;-63
2021/12/09 12:41:15;;;;;;;70.47;35.70;;;3.40;99.90;;;;;;5040817;28;20630;-63
2021/12/09 12:43:54;;;;;;;74.60;36.90;;;3.30;99.90;;;;;;5047974;28;20512;-63
2021/12/09 12:46:55;;;;;;;70.33;36.37;;;3.30;99.90;;;;;;5046267;28;20471;-62
2021/12/09 12:49:31;;;;;;;67.17;34.93;;;3.30;99.90;;;;;;5047643;28;20831;-62
2021/12/09 12:52:06;;;;;;;64.53;33.50;;;3.30;99.90;;;;;;5049930;28;20819;-63
2021/12/09 12:54:48;;;;;;;72.57;35.93;;;3.20;99.90;;;;;;5045610;28;21895;-61
2021/12/09 12:57:30;;;;;;;65.77;32.43;;;3.20;99.90;;;;;;5047252;28;21025;-62
2021/12/09 13:00:11;;;;;;;63.47;33.20;;;3.30;99.90;;;;;;5047016;28;21455;-62
2021/12/09 13:03:04;;;;;;;68.00;32.67;;;3.30;99.90;;;;;;5047496;28;20485;-62
2021/12/09 13:06:05;;;;;;;68.37;34.30;;;3.40;99.90;;;;;;5044683;28;20557;-62
2021/12/09 13:08:51;;;;;;;69.00;34.80;;;3.40;99.90;;;;;;5046885;28;20610;-62
2021/12/09 13:11:41;;;;;;;71.53;35.03;;;3.30;99.90;;;;;;5045959;28;21122;-62
2021/12/09 13:14:18;;;;;;;61.70;33.77;;;3.30;99.90;;;;;;5045802;28;20481;-63
2021/12/09 13:17:05;;;;;;;67.17;35.90;;;3.30;99.90;;;;;;5045165;28;21369;-63
2021/12/09 13:19:41;;;;;;;70.50;36.70;;;3.30;99.90;;;;;;5046487;28;20679;-62
2021/12/09 13:22:30;;;;;;;71.13;36.00;;;3.40;99.90;;;;;;5047047;28;20482;-63
2021/12/09 13:25:17;;;;;;;64.13;33.83;;;3.40;99.90;;;;;;5044166;28;20489;-63
2021/12/09 13:27:53;;;;;;;73.10;35.30;;;3.30;99.90;;;;;;5046991;28;20930;-62
2021/12/09 13:30:32;;;;;;;69.17;34.23;;;3.40;99.90;;;;;;5046162;28;20560;-63
2021/12/09 13:33:19;;;;;;;68.70;36.20;;;3.40;99.90;;;;;;5044671;28;20503;-63
2021/12/09 13:36:25;;;;;;;62.47;32.80;;;3.40;99.90;;;;;;5044306;28;20468;-63
2021/12/09 13:47:36;;;;;;;71.90;35.90;;;3.40;99.90;;;;;;5044859;28;20473;-63